sensor_id;sensor_type;location;lat;lon;timestamp;P1;durP1;ratioP1;P2;durP2;ratioP2
64936;SDS011;51452;47.698;19.050;2023-02-19T00:00:59;1.92;;;0.93;;
64936;SDS011;51452;47.698;19.050;2023-02-19T00:03:25;1.85;;;0.93;;
64936;SDS011;51452;47.698;19.050;2023-02-19T00:05:52;1.30;;;0.80;;
64936;SDS011;51452;47.698;19.050;2023-02-19T00:08:17;1.55;;;0.80;;
64936;SDS011;51452;47.698;19.050;2023-02-19T00:10:43;1.30;;;0.80;;
64936;SDS011;51452;47.698;19.050;2023-02-19T00:13:08;2.10;;;1.00;;
64936;SDS011;51452;47.698;19.050;2023-02-19T00:15:34;1.45;;;0.93;;
64936;SDS011;51452;47.698;19.050;2023-02-19T00:17:59;1.60;;;0.77;;
64936;SDS011;51452;47.698;19.050;2023-02-19T00:20:24;1.30;;;0.75;;
64936;SDS011;51452;47.698;19.050;2023-02-19T00:22:50;1.10;;;0.80;;
64936;SDS011;51452;47.698;19.050;2023-02-19T00:25:15;0.93;;;0.68;;
64936;SDS011;51452;47.698;19.050;2023-02-19T00:27:41;1.02;;;0.70;;
64936;SDS011;51452;47.698;19.050;2023-02-19T00:30:07;1.52;;;0.70;;
64936;SDS011;51452;47.698;19.050;2023-02-19T00:32:32;1.48;;;0.80;;
64936;SDS011;51452;47.698;19.050;2023-02-19T00:34:58;1.60;;;0.80;;
64936;SDS011;51452;47.698;19.050;2023-02-19T00:37:23;1.10;;;0.80;;
64936;SDS011;51452;47.698;19.050;2023-02-19T00:39:49;1.23;;;0.80;;
64936;SDS011;51452;47.698;19.050;2023-02-19T00:42:14;1.75;;;0.63;;
64936;SDS011;51452;47.698;19.050;2023-02-19T00:44:40;2.35;;;0.90;;
64936;SDS011;51452;47.698;19.050;2023-02-19T00:47:05;1.33;;;0.80;;
64936;SDS011;51452;47.698;19.050;2023-02-19T00:49:30;1.00;;;0.70;;
64936;SDS011;51452;47.698;19.050;2023-02-19T00:51:56;1.00;;;0.60;;
64936;SDS011;51452;47.698;19.050;2023-02-19T00:54:21;1.00;;;0.75;;
64936;SDS011;51452;47.698;19.050;2023-02-19T00:56:47;4.32;;;0.95;;
64936;SDS011;51452;47.698;19.050;2023-02-19T00:59:13;1.40;;;0.70;;
64936;SDS011;51452;47.698;19.050;2023-02-19T01:01:39;1.38;;;0.80;;
64936;SDS011;51452;47.698;19.050;2023-02-19T01:04:05;0.85;;;0.50;;
64936;SDS011;51452;47.698;19.050;2023-02-19T01:06:30;0.77;;;0.63;;
64936;SDS011;51452;47.698;19.050;2023-02-19T01:08:56;1.20;;;0.70;;
64936;SDS011;51452;47.698;19.050;2023-02-19T01:11:22;1.10;;;0.70;;
64936;SDS011;51452;47.698;19.050;2023-02-19T01:13:48;0.90;;;0.70;;
64936;SDS011;51452;47.698;19.050;2023-02-19T01:16:18;1.80;;;0.80;;
64936;SDS011;51452;47.698;19.050;2023-02-19T01:18:45;1.33;;;0.90;;
64936;SDS011;51452;47.698;19.050;2023-02-19T01:21:14;1.15;;;0.85;;
64936;SDS011;51452;47.698;19.050;2023-02-19T01:23:41;1.83;;;0.88;;
64936;SDS011;51452;47.698;19.050;2023-02-19T01:26:09;1.25;;;0.60;;
64936;SDS011;51452;47.698;19.050;2023-02-19T01:28:37;1.13;;;0.80;;
64936;SDS011;51452;47.698;19.050;2023-02-19T01:31:03;0.95;;;0.63;;
64936;SDS011;51452;47.698;19.050;2023-02-19T01:33:31;1.60;;;0.80;;
64936;SDS011;51452;47.698;19.050;2023-02-19T01:35:57;2.58;;;0.77;;
64936;SDS011;51452;47.698;19.050;2023-02-19T01:38:22;2.20;;;0.70;;
64936;SDS011;51452;47.698;19.050;2023-02-19T01:40:58;2.05;;;0.75;;
64936;SDS011;51452;47.698;19.050;2023-02-19T01:43:26;1.08;;;0.80;;
64936;SDS011;51452;47.698;19.050;2023-02-19T01:45:52;2.10;;;0.60;;
64936;SDS011;51452;47.698;19.050;2023-02-19T01:48:38;1.55;;;0.70;;
64936;SDS011;51452;47.698;19.050;2023-02-19T01:53:29;1.30;;;0.80;;
64936;SDS011;51452;47.698;19.050;2023-02-19T01:55:58;1.20;;;0.80;;
64936;SDS011;51452;47.698;19.050;2023-02-19T01:58:25;4.18;;;0.80;;
64936;SDS011;51452;47.698;19.050;2023-02-19T02:00:56;2.17;;;0.75;;
64936;SDS011;51452;47.698;19.050;2023-02-19T02:03:21;1.50;;;0.88;;
64936;SDS011;51452;47.698;19.050;2023-02-19T02:05:53;1.13;;;0.63;;
64936;SDS011;51452;47.698;19.050;2023-02-19T02:08:29;0.93;;;0.70;;
64936;SDS011;51452;47.698;19.050;2023-02-19T02:11:14;1.13;;;0.80;;
64936;SDS011;51452;47.698;19.050;2023-02-19T02:13:40;2.13;;;0.70;;
64936;SDS011;51452;47.698;19.050;2023-02-19T02:21:54;1.13;;;0.70;;
64936;SDS011;51452;47.698;19.050;2023-02-19T02:27:42;1.02;;;0.80;;
64936;SDS011;51452;47.698;19.050;2023-02-19T02:35:49;1.60;;;0.77;;
64936;SDS011;51452;47.698;19.050;2023-02-19T02:38:15;1.30;;;0.88;;
64936;SDS011;51452;47.698;19.050;2023-02-19T02:40:44;1.67;;;0.77;;
64936;SDS011;51452;47.698;19.050;2023-02-19T02:43:11;1.27;;;0.75;;
64936;SDS011;51452;47.698;19.050;2023-02-19T02:45:37;1.10;;;0.80;;
64936;SDS011;51452;47.698;19.050;2023-02-19T02:50:40;1.23;;;0.70;;
64936;SDS011;51452;47.698;19.050;2023-02-19T02:53:24;0.93;;;0.70;;
64936;SDS011;51452;47.698;19.050;2023-02-19T02:56:18;1.92;;;1.02;;
64936;SDS011;51452;47.698;19.050;2023-02-19T02:58:46;1.17;;;0.77;;
64936;SDS011;51452;47.698;19.050;2023-02-19T03:01:21;1.92;;;0.77;;
64936;SDS011;51452;47.698;19.050;2023-02-19T03:04:26;1.20;;;0.77;;
64936;SDS011;51452;47.698;19.050;2023-02-19T03:06:59;0.80;;;0.65;;
64936;SDS011;51452;47.698;19.050;2023-02-19T03:09:34;1.70;;;0.98;;
64936;SDS011;51452;47.698;19.050;2023-02-19T03:12:06;1.95;;;0.90;;
64936;SDS011;51452;47.698;19.050;2023-02-19T03:14:57;1.13;;;0.73;;
64936;SDS011;51452;47.698;19.050;2023-02-19T03:17:50;1.33;;;0.80;;
64936;SDS011;51452;47.698;19.050;2023-02-19T03:20:37;1.05;;;0.70;;
64936;SDS011;51452;47.698;19.050;2023-02-19T03:23:06;2.47;;;1.00;;
64936;SDS011;51452;47.698;19.050;2023-02-19T03:25:34;1.83;;;0.90;;
64936;SDS011;51452;47.698;19.050;2023-02-19T03:28:22;1.13;;;0.75;;
64936;SDS011;51452;47.698;19.050;2023-02-19T03:31:11;1.17;;;0.70;;
64936;SDS011;51452;47.698;19.050;2023-02-19T03:33:42;1.92;;;1.00;;
64936;SDS011;51452;47.698;19.050;2023-02-19T03:36:10;1.42;;;0.80;;
64936;SDS011;51452;47.698;19.050;2023-02-19T03:38:43;1.10;;;0.80;;
64936;SDS011;51452;47.698;19.050;2023-02-19T03:43:49;1.30;;;0.80;;
64936;SDS011;51452;47.698;19.050;2023-02-19T03:49:48;0.82;;;0.60;;
64936;SDS011;51452;47.698;19.050;2023-02-19T03:55:11;0.95;;;0.60;;
64936;SDS011;51452;47.698;19.050;2023-02-19T03:57:54;1.75;;;0.90;;
64936;SDS011;51452;47.698;19.050;2023-02-19T04:00:32;1.25;;;0.70;;
64936;SDS011;51452;47.698;19.050;2023-02-19T04:03:14;1.10;;;0.77;;
64936;SDS011;51452;47.698;19.050;2023-02-19T04:05:49;1.13;;;0.90;;
64936;SDS011;51452;47.698;19.050;2023-02-19T04:08:20;1.05;;;0.68;;
64936;SDS011;51452;47.698;19.050;2023-02-19T04:10:48;1.02;;;0.75;;
64936;SDS011;51452;47.698;19.050;2023-02-19T04:13:18;1.30;;;0.97;;
64936;SDS011;51452;47.698;19.050;2023-02-19T04:15:47;1.17;;;0.77;;
64936;SDS011;51452;47.698;19.050;2023-02-19T04:18:19;1.00;;;0.60;;
64936;SDS011;51452;47.698;19.050;2023-02-19T04:20:49;1.67;;;0.65;;
64936;SDS011;51452;47.698;19.050;2023-02-19T04:23:15;0.90;;;0.70;;
64936;SDS011;51452;47.698;19.050;2023-02-19T04:25:44;1.63;;;0.90;;
64936;SDS011;51452;47.698;19.050;2023-02-19T04:28:12;1.30;;;0.80;;
64936;SDS011;51452;47.698;19.050;2023-02-19T04:30:40;1.45;;;0.90;;
64936;SDS011;51452;47.698;19.050;2023-02-19T04:33:07;1.00;;;0.73;;
64936;SDS011;51452;47.698;19.050;2023-02-19T04:35:32;1.27;;;0.80;;
64936;SDS011;51452;47.698;19.050;2023-02-19T04:37:58;0.73;;;0.70;;
64936;SDS011;51452;47.698;19.050;2023-02-19T04:40:23;3.13;;;0.90;;
64936;SDS011;51452;47.698;19.050;2023-02-19T04:42:48;2.10;;;0.70;;
64936;SDS011;51452;47.698;19.050;2023-02-19T04:45:14;0.88;;;0.70;;
64936;SDS011;51452;47.698;19.050;2023-02-19T04:47:39;1.20;;;0.60;;
64936;SDS011;51452;47.698;19.050;2023-02-19T04:50:04;1.10;;;0.77;;
64936;SDS011;51452;47.698;19.050;2023-02-19T04:52:30;1.60;;;0.70;;
64936;SDS011;51452;47.698;19.050;2023-02-19T04:54:57;1.02;;;0.65;;
64936;SDS011;51452;47.698;19.050;2023-02-19T04:57:22;2.22;;;1.10;;
64936;SDS011;51452;47.698;19.050;2023-02-19T04:59:48;1.05;;;0.77;;
64936;SDS011;51452;47.698;19.050;2023-02-19T05:02:13;1.13;;;0.70;;
64936;SDS011;51452;47.698;19.050;2023-02-19T05:04:39;1.00;;;0.80;;
64936;SDS011;51452;47.698;19.050;2023-02-19T05:07:05;1.00;;;0.50;;
64936;SDS011;51452;47.698;19.050;2023-02-19T05:09:30;1.27;;;0.80;;
64936;SDS011;51452;47.698;19.050;2023-02-19T05:11:56;1.13;;;0.60;;
64936;SDS011;51452;47.698;19.050;2023-02-19T05:14:21;2.97;;;0.60;;
64936;SDS011;51452;47.698;19.050;2023-02-19T05:16:46;1.00;;;0.60;;
64936;SDS011;51452;47.698;19.050;2023-02-19T05:19:12;1.50;;;0.80;;
64936;SDS011;51452;47.698;19.050;2023-02-19T05:21:37;1.88;;;0.80;;
64936;SDS011;51452;47.698;19.050;2023-02-19T05:24:05;0.73;;;0.50;;
64936;SDS011;51452;47.698;19.050;2023-02-19T05:26:31;1.98;;;1.08;;
64936;SDS011;51452;47.698;19.050;2023-02-19T05:28:57;1.38;;;0.70;;
64936;SDS011;51452;47.698;19.050;2023-02-19T05:31:23;0.98;;;0.70;;
64936;SDS011;51452;47.698;19.050;2023-02-19T05:33:49;1.00;;;0.60;;
64936;SDS011;51452;47.698;19.050;2023-02-19T05:36:18;0.77;;;0.60;;
64936;SDS011;51452;47.698;19.050;2023-02-19T05:38:45;1.05;;;0.80;;
64936;SDS011;51452;47.698;19.050;2023-02-19T05:41:15;1.55;;;0.90;;
64936;SDS011;51452;47.698;19.050;2023-02-19T05:43:43;1.30;;;0.80;;
64936;SDS011;51452;47.698;19.050;2023-02-19T05:46:11;3.03;;;1.10;;
64936;SDS011;51452;47.698;19.050;2023-02-19T05:48:38;3.93;;;1.47;;
64936;SDS011;51452;47.698;19.050;2023-02-19T05:51:04;3.78;;;1.85;;
64936;SDS011;51452;47.698;19.050;2023-02-19T05:53:41;3.25;;;1.67;;
64936;SDS011;51452;47.698;19.050;2023-02-19T05:58:49;1.40;;;0.90;;
64936;SDS011;51452;47.698;19.050;2023-02-19T06:01:18;1.10;;;0.70;;
64936;SDS011;51452;47.698;19.050;2023-02-19T06:03:45;1.23;;;0.70;;
64936;SDS011;51452;47.698;19.050;2023-02-19T06:06:14;0.80;;;0.80;;
64936;SDS011;51452;47.698;19.050;2023-02-19T06:08:40;1.90;;;1.10;;
64936;SDS011;51452;47.698;19.050;2023-02-19T06:11:06;1.15;;;0.80;;
64936;SDS011;51452;47.698;19.050;2023-02-19T06:13:31;1.52;;;0.82;;
64936;SDS011;51452;47.698;19.050;2023-02-19T06:15:57;0.90;;;0.70;;
64936;SDS011;51452;47.698;19.050;2023-02-19T06:18:22;1.85;;;0.90;;
64936;SDS011;51452;47.698;19.050;2023-02-19T06:20:48;1.07;;;0.77;;
64936;SDS011;51452;47.698;19.050;2023-02-19T06:23:13;0.90;;;0.60;;
64936;SDS011;51452;47.698;19.050;2023-02-19T06:25:39;2.95;;;1.10;;
64936;SDS011;51452;47.698;19.050;2023-02-19T06:28:05;2.17;;;1.23;;
64936;SDS011;51452;47.698;19.050;2023-02-19T06:30:30;2.27;;;1.20;;
64936;SDS011;51452;47.698;19.050;2023-02-19T06:32:56;2.90;;;1.30;;
64936;SDS011;51452;47.698;19.050;2023-02-19T06:35:21;2.65;;;1.20;;
64936;SDS011;51452;47.698;19.050;2023-02-19T06:37:47;1.80;;;1.27;;
64936;SDS011;51452;47.698;19.050;2023-02-19T06:40:14;4.40;;;1.20;;
64936;SDS011;51452;47.698;19.050;2023-02-19T06:42:40;1.70;;;0.90;;
64936;SDS011;51452;47.698;19.050;2023-02-19T06:45:05;1.77;;;1.07;;
64936;SDS011;51452;47.698;19.050;2023-02-19T06:47:31;2.13;;;1.30;;
64936;SDS011;51452;47.698;19.050;2023-02-19T06:49:57;1.90;;;1.10;;
64936;SDS011;51452;47.698;19.050;2023-02-19T06:52:24;2.00;;;1.05;;
64936;SDS011;51452;47.698;19.050;2023-02-19T06:54:50;2.03;;;1.10;;
64936;SDS011;51452;47.698;19.050;2023-02-19T06:57:15;1.50;;;1.00;;
64936;SDS011;51452;47.698;19.050;2023-02-19T06:59:40;2.10;;;1.20;;
64936;SDS011;51452;47.698;19.050;2023-02-19T07:02:06;1.85;;;1.13;;
64936;SDS011;51452;47.698;19.050;2023-02-19T07:04:35;1.70;;;0.93;;
64936;SDS011;51452;47.698;19.050;2023-02-19T07:07:00;1.80;;;1.10;;
64936;SDS011;51452;47.698;19.050;2023-02-19T07:09:25;1.58;;;0.90;;
64936;SDS011;51452;47.698;19.050;2023-02-19T07:11:52;1.10;;;0.93;;
64936;SDS011;51452;47.698;19.050;2023-02-19T07:14:18;2.08;;;1.02;;
64936;SDS011;51452;47.698;19.050;2023-02-19T07:16:44;1.67;;;0.80;;
64936;SDS011;51452;47.698;19.050;2023-02-19T07:19:11;1.55;;;0.90;;
64936;SDS011;51452;47.698;19.050;2023-02-19T07:21:37;2.20;;;0.90;;
64936;SDS011;51452;47.698;19.050;2023-02-19T07:24:03;1.42;;;0.70;;
64936;SDS011;51452;47.698;19.050;2023-02-19T07:26:29;2.28;;;1.10;;
64936;SDS011;51452;47.698;19.050;2023-02-19T07:28:54;2.75;;;0.80;;
64936;SDS011;51452;47.698;19.050;2023-02-19T07:31:21;1.40;;;1.00;;
64936;SDS011;51452;47.698;19.050;2023-02-19T07:33:48;1.65;;;0.80;;
64936;SDS011;51452;47.698;19.050;2023-02-19T07:36:15;1.40;;;0.80;;
64936;SDS011;51452;47.698;19.050;2023-02-19T07:38:41;1.10;;;0.90;;
64936;SDS011;51452;47.698;19.050;2023-02-19T07:41:07;1.60;;;1.08;;
64936;SDS011;51452;47.698;19.050;2023-02-19T07:43:33;1.92;;;0.80;;
64936;SDS011;51452;47.698;19.050;2023-02-19T07:46:08;1.20;;;0.88;;
64936;SDS011;51452;47.698;19.050;2023-02-19T07:48:35;1.80;;;0.90;;
64936;SDS011;51452;47.698;19.050;2023-02-19T07:51:01;2.08;;;0.90;;
64936;SDS011;51452;47.698;19.050;2023-02-19T07:53:28;1.48;;;0.82;;
64936;SDS011;51452;47.698;19.050;2023-02-19T07:55:57;1.27;;;0.80;;
64936;SDS011;51452;47.698;19.050;2023-02-19T07:58:32;1.55;;;0.93;;
64936;SDS011;51452;47.698;19.050;2023-02-19T08:01:05;1.27;;;0.82;;
64936;SDS011;51452;47.698;19.050;2023-02-19T08:03:32;1.23;;;0.98;;
64936;SDS011;51452;47.698;19.050;2023-02-19T08:05:57;1.40;;;1.08;;
64936;SDS011;51452;47.698;19.050;2023-02-19T08:08:22;1.45;;;0.80;;
64936;SDS011;51452;47.698;19.050;2023-02-19T08:10:48;1.20;;;0.80;;
64936;SDS011;51452;47.698;19.050;2023-02-19T08:13:32;1.20;;;0.75;;
64936;SDS011;51452;47.698;19.050;2023-02-19T08:18:27;1.60;;;1.30;;
64936;SDS011;51452;47.698;19.050;2023-02-19T08:20:54;3.70;;;1.40;;
64936;SDS011;51452;47.698;19.050;2023-02-19T08:23:20;9.18;;;1.40;;
64936;SDS011;51452;47.698;19.050;2023-02-19T08:25:46;2.10;;;1.13;;
64936;SDS011;51452;47.698;19.050;2023-02-19T08:28:12;1.85;;;1.23;;
64936;SDS011;51452;47.698;19.050;2023-02-19T08:30:38;1.85;;;1.10;;
64936;SDS011;51452;47.698;19.050;2023-02-19T08:33:05;2.17;;;1.17;;
64936;SDS011;51452;47.698;19.050;2023-02-19T08:35:32;3.53;;;1.17;;
64936;SDS011;51452;47.698;19.050;2023-02-19T08:38:00;21.00;;;1.63;;
64936;SDS011;51452;47.698;19.050;2023-02-19T08:40:26;1.80;;;0.80;;
64936;SDS011;51452;47.698;19.050;2023-02-19T08:42:51;3.80;;;1.00;;
64936;SDS011;51452;47.698;19.050;2023-02-19T08:45:17;1.40;;;0.90;;
64936;SDS011;51452;47.698;19.050;2023-02-19T08:47:56;5.20;;;2.17;;
64936;SDS011;51452;47.698;19.050;2023-02-19T08:50:22;1.53;;;0.93;;
64936;SDS011;51452;47.698;19.050;2023-02-19T08:52:48;1.53;;;0.80;;
64936;SDS011;51452;47.698;19.050;2023-02-19T08:55:14;2.67;;;0.90;;
64936;SDS011;51452;47.698;19.050;2023-02-19T08:57:39;2.83;;;1.20;;
64936;SDS011;51452;47.698;19.050;2023-02-19T09:00:05;1.77;;;0.90;;
64936;SDS011;51452;47.698;19.050;2023-02-19T09:02:31;1.33;;;0.73;;
64936;SDS011;51452;47.698;19.050;2023-02-19T09:04:57;2.30;;;1.27;;
64936;SDS011;51452;47.698;19.050;2023-02-19T09:07:23;1.43;;;0.90;;
64936;SDS011;51452;47.698;19.050;2023-02-19T09:09:48;3.27;;;1.80;;
64936;SDS011;51452;47.698;19.050;2023-02-19T09:12:13;7.93;;;5.03;;
64936;SDS011;51452;47.698;19.050;2023-02-19T09:14:39;2.00;;;1.30;;
64936;SDS011;51452;47.698;19.050;2023-02-19T09:17:05;1.90;;;1.10;;
64936;SDS011;51452;47.698;19.050;2023-02-19T09:19:32;1.23;;;0.90;;
64936;SDS011;51452;47.698;19.050;2023-02-19T09:21:57;4.43;;;1.00;;
64936;SDS011;51452;47.698;19.050;2023-02-19T09:24:23;3.20;;;1.03;;
64936;SDS011;51452;47.698;19.050;2023-02-19T09:26:52;1.43;;;1.00;;
64936;SDS011;51452;47.698;19.050;2023-02-19T09:29:19;2.57;;;1.43;;
64936;SDS011;51452;47.698;19.050;2023-02-19T09:31:45;2.33;;;1.27;;
64936;SDS011;51452;47.698;19.050;2023-02-19T09:34:10;5.03;;;2.50;;
64936;SDS011;51452;47.698;19.050;2023-02-19T09:36:37;5.17;;;2.17;;
64936;SDS011;51452;47.698;19.050;2023-02-19T09:39:03;6.30;;;3.27;;
64936;SDS011;51452;47.698;19.050;2023-02-19T09:43:59;8.13;;;4.17;;
64936;SDS011;51452;47.698;19.050;2023-02-19T09:49:06;10.15;;;4.68;;
64936;SDS011;51452;47.698;19.050;2023-02-19T09:51:37;10.15;;;5.28;;
64936;SDS011;51452;47.698;19.050;2023-02-19T09:54:05;13.95;;;6.20;;
64936;SDS011;51452;47.698;19.050;2023-02-19T09:56:36;9.48;;;5.45;;
64936;SDS011;51452;47.698;19.050;2023-02-19T09:59:02;12.07;;;6.70;;
64936;SDS011;51452;47.698;19.050;2023-02-19T10:01:29;10.57;;;5.50;;
64936;SDS011;51452;47.698;19.050;2023-02-19T10:03:58;12.05;;;5.88;;
64936;SDS011;51452;47.698;19.050;2023-02-19T10:06:25;10.07;;;5.40;;
64936;SDS011;51452;47.698;19.050;2023-02-19T10:08:54;9.82;;;5.63;;
64936;SDS011;51452;47.698;19.050;2023-02-19T10:11:24;9.40;;;5.18;;
64936;SDS011;51452;47.698;19.050;2023-02-19T10:16:29;7.38;;;4.22;;
64936;SDS011;51452;47.698;19.050;2023-02-19T10:18:55;9.20;;;4.90;;
64936;SDS011;51452;47.698;19.050;2023-02-19T10:21:21;11.25;;;6.00;;
64936;SDS011;51452;47.698;19.050;2023-02-19T10:23:52;9.65;;;5.05;;
64936;SDS011;51452;47.698;19.050;2023-02-19T10:26:21;8.60;;;4.47;;
64936;SDS011;51452;47.698;19.050;2023-02-19T10:28:47;8.75;;;4.55;;
64936;SDS011;51452;47.698;19.050;2023-02-19T10:31:20;8.13;;;5.00;;
64936;SDS011;51452;47.698;19.050;2023-02-19T10:36:28;7.07;;;4.03;;
64936;SDS011;51452;47.698;19.050;2023-02-19T10:38:54;8.80;;;4.82;;
64936;SDS011;51452;47.698;19.050;2023-02-19T10:41:21;9.65;;;4.53;;
64936;SDS011;51452;47.698;19.050;2023-02-19T10:44:32;8.23;;;4.32;;
64936;SDS011;51452;47.698;19.050;2023-02-19T10:46:42;10.32;;;4.95;;
64936;SDS011;51452;47.698;19.050;2023-02-19T10:49:25;9.20;;;4.05;;
64936;SDS011;51452;47.698;19.050;2023-02-19T10:52:10;4.78;;;3.13;;
64936;SDS011;51452;47.698;19.050;2023-02-19T10:54:42;5.97;;;3.08;;
64936;SDS011;51452;47.698;19.050;2023-02-19T10:59:48;5.53;;;2.38;;
64936;SDS011;51452;47.698;19.050;2023-02-19T11:02:17;4.63;;;2.00;;
64936;SDS011;51452;47.698;19.050;2023-02-19T11:07:51;3.60;;;1.67;;
64936;SDS011;51452;47.698;19.050;2023-02-19T11:12:50;3.22;;;1.75;;
64936;SDS011;51452;47.698;19.050;2023-02-19T11:15:19;3.60;;;1.80;;
64936;SDS011;51452;47.698;19.050;2023-02-19T11:20:53;4.43;;;1.73;;
64936;SDS011;51452;47.698;19.050;2023-02-19T11:23:30;4.78;;;2.80;;
64936;SDS011;51452;47.698;19.050;2023-02-19T11:26:05;6.43;;;3.03;;
64936;SDS011;51452;47.698;19.050;2023-02-19T11:28:40;5.35;;;2.80;;
64936;SDS011;51452;47.698;19.050;2023-02-19T11:31:14;4.55;;;2.80;;
64936;SDS011;51452;47.698;19.050;2023-02-19T11:34:00;5.65;;;2.65;;
64936;SDS011;51452;47.698;19.050;2023-02-19T11:36:32;4.20;;;2.47;;
64936;SDS011;51452;47.698;19.050;2023-02-19T11:39:21;5.32;;;3.00;;
64936;SDS011;51452;47.698;19.050;2023-02-19T11:50:28;5.55;;;3.05;;
64936;SDS011;51452;47.698;19.050;2023-02-19T11:53:24;4.40;;;2.65;;
64936;SDS011;51452;47.698;19.050;2023-02-19T11:58:46;3.83;;;2.55;;
64936;SDS011;51452;47.698;19.050;2023-02-19T12:07:28;3.13;;;2.08;;
64936;SDS011;51452;47.698;19.050;2023-02-19T12:26:05;3.55;;;2.20;;
64936;SDS011;51452;47.698;19.050;2023-02-19T12:34:29;3.45;;;2.17;;
64936;SDS011;51452;47.698;19.050;2023-02-19T12:37:02;2.80;;;1.70;;
64936;SDS011;51452;47.698;19.050;2023-02-19T12:39:45;4.25;;;2.10;;
64936;SDS011;51452;47.698;19.050;2023-02-19T12:45:15;3.30;;;2.22;;
64936;SDS011;51452;47.698;19.050;2023-02-19T12:47:43;4.72;;;2.45;;
64936;SDS011;51452;47.698;19.050;2023-02-19T12:50:16;5.10;;;2.40;;
64936;SDS011;51452;47.698;19.050;2023-02-19T12:52:47;3.80;;;2.58;;
64936;SDS011;51452;47.698;19.050;2023-02-19T12:55:30;2.97;;;2.00;;
64936;SDS011;51452;47.698;19.050;2023-02-19T12:58:00;3.55;;;1.80;;
64936;SDS011;51452;47.698;19.050;2023-02-19T13:03:29;2.55;;;1.38;;
64936;SDS011;51452;47.698;19.050;2023-02-19T13:06:03;1.70;;;1.10;;
64936;SDS011;51452;47.698;19.050;2023-02-19T13:11:49;1.92;;;1.10;;
64936;SDS011;51452;47.698;19.050;2023-02-19T13:16:51;1.65;;;1.00;;
64936;SDS011;51452;47.698;19.050;2023-02-19T13:19:21;1.35;;;0.90;;
64936;SDS011;51452;47.698;19.050;2023-02-19T13:21:49;1.58;;;0.90;;
64936;SDS011;51452;47.698;19.050;2023-02-19T13:24:40;0.95;;;0.70;;
64936;SDS011;51452;47.698;19.050;2023-02-19T13:27:31;1.00;;;0.60;;
64936;SDS011;51452;47.698;19.050;2023-02-19T13:35:41;0.82;;;0.63;;
64936;SDS011;51452;47.698;19.050;2023-02-19T13:38:37;2.25;;;0.70;;
64936;SDS011;51452;47.698;19.050;2023-02-19T13:41:05;1.42;;;0.63;;
64936;SDS011;51452;47.698;19.050;2023-02-19T13:43:35;0.90;;;0.60;;
64936;SDS011;51452;47.698;19.050;2023-02-19T13:46:06;1.10;;;0.70;;
64936;SDS011;51452;47.698;19.050;2023-02-19T13:48:36;2.08;;;0.70;;
64936;SDS011;51452;47.698;19.050;2023-02-19T13:53:49;1.05;;;0.50;;
64936;SDS011;51452;47.698;19.050;2023-02-19T14:09:52;0.75;;;0.30;;
64936;SDS011;51452;47.698;19.050;2023-02-19T14:12:19;0.30;;;0.30;;
64936;SDS011;51452;47.698;19.050;2023-02-19T14:14:47;0.85;;;0.30;;
64936;SDS011;51452;47.698;19.050;2023-02-19T14:17:24;0.57;;;0.30;;
64936;SDS011;51452;47.698;19.050;2023-02-19T14:20:00;0.25;;;0.20;;
64936;SDS011;51452;47.698;19.050;2023-02-19T14:30:26;0.20;;;0.20;;
64936;SDS011;51452;47.698;19.050;2023-02-19T14:32:53;0.30;;;0.30;;
64936;SDS011;51452;47.698;19.050;2023-02-19T14:35:27;0.75;;;0.20;;
64936;SDS011;51452;47.698;19.050;2023-02-19T14:37:59;0.35;;;0.25;;
64936;SDS011;51452;47.698;19.050;2023-02-19T14:40:27;0.20;;;0.20;;
64936;SDS011;51452;47.698;19.050;2023-02-19T14:42:58;0.47;;;0.30;;
64936;SDS011;51452;47.698;19.050;2023-02-19T14:45:26;0.13;;;0.13;;
64936;SDS011;51452;47.698;19.050;2023-02-19T14:47:55;0.20;;;0.20;;
64936;SDS011;51452;47.698;19.050;2023-02-19T14:50:25;0.35;;;0.30;;
64936;SDS011;51452;47.698;19.050;2023-02-19T14:52:55;0.68;;;0.30;;
64936;SDS011;51452;47.698;19.050;2023-02-19T14:55:29;0.22;;;0.20;;
64936;SDS011;51452;47.698;19.050;2023-02-19T14:58:02;0.47;;;0.38;;
64936;SDS011;51452;47.698;19.050;2023-02-19T15:00:37;0.60;;;0.30;;
64936;SDS011;51452;47.698;19.050;2023-02-19T15:03:05;0.77;;;0.30;;
64936;SDS011;51452;47.698;19.050;2023-02-19T15:05:53;0.93;;;0.30;;
64936;SDS011;51452;47.698;19.050;2023-02-19T15:08:24;0.50;;;0.30;;
64936;SDS011;51452;47.698;19.050;2023-02-19T15:10:55;0.32;;;0.30;;
64936;SDS011;51452;47.698;19.050;2023-02-19T15:13:24;0.63;;;0.30;;
64936;SDS011;51452;47.698;19.050;2023-02-19T15:15:52;0.68;;;0.40;;
64936;SDS011;51452;47.698;19.050;2023-02-19T15:18:20;0.52;;;0.40;;
64936;SDS011;51452;47.698;19.050;2023-02-19T15:20:49;0.38;;;0.30;;
64936;SDS011;51452;47.698;19.050;2023-02-19T15:23:22;0.40;;;0.30;;
64936;SDS011;51452;47.698;19.050;2023-02-19T15:25:50;0.50;;;0.40;;
64936;SDS011;51452;47.698;19.050;2023-02-19T15:33:26;1.40;;;0.50;;
64936;SDS011;51452;47.698;19.050;2023-02-19T15:35:53;0.80;;;0.60;;
64936;SDS011;51452;47.698;19.050;2023-02-19T15:38:22;0.80;;;0.50;;
64936;SDS011;51452;47.698;19.050;2023-02-19T15:40:48;1.08;;;0.60;;
64936;SDS011;51452;47.698;19.050;2023-02-19T15:45:46;2.37;;;0.50;;
64936;SDS011;51452;47.698;19.050;2023-02-19T15:48:24;1.55;;;0.40;;
64936;SDS011;51452;47.698;19.050;2023-02-19T15:50:59;0.85;;;0.60;;
64936;SDS011;51452;47.698;19.050;2023-02-19T15:53:32;1.20;;;0.60;;
64936;SDS011;51452;47.698;19.050;2023-02-19T15:56:04;1.10;;;0.60;;
64936;SDS011;51452;47.698;19.050;2023-02-19T16:01:30;1.38;;;0.60;;
64936;SDS011;51452;47.698;19.050;2023-02-19T16:04:00;1.27;;;0.70;;
64936;SDS011;51452;47.698;19.050;2023-02-19T16:06:27;0.60;;;0.50;;
64936;SDS011;51452;47.698;19.050;2023-02-19T16:14:16;0.97;;;0.70;;
64936;SDS011;51452;47.698;19.050;2023-02-19T16:16:59;0.90;;;0.70;;
64936;SDS011;51452;47.698;19.050;2023-02-19T16:19:32;0.85;;;0.50;;
64936;SDS011;51452;47.698;19.050;2023-02-19T16:22:18;0.90;;;0.55;;
64936;SDS011;51452;47.698;19.050;2023-02-19T16:24:50;4.50;;;1.00;;
64936;SDS011;51452;47.698;19.050;2023-02-19T16:27:29;0.73;;;0.53;;
64936;SDS011;51452;47.698;19.050;2023-02-19T16:30:00;0.68;;;0.50;;
64936;SDS011;51452;47.698;19.050;2023-02-19T16:32:28;1.00;;;0.47;;
64936;SDS011;51452;47.698;19.050;2023-02-19T16:34:56;1.00;;;0.70;;
64936;SDS011;51452;47.698;19.050;2023-02-19T16:37:40;1.25;;;0.70;;
64936;SDS011;51452;47.698;19.050;2023-02-19T16:45:16;0.60;;;0.30;;
64936;SDS011;51452;47.698;19.050;2023-02-19T16:47:44;1.57;;;0.50;;
64936;SDS011;51452;47.698;19.050;2023-02-19T16:50:22;0.63;;;0.50;;
64936;SDS011;51452;47.698;19.050;2023-02-19T16:52:50;0.82;;;0.50;;
64936;SDS011;51452;47.698;19.050;2023-02-19T16:55:20;0.63;;;0.30;;
64936;SDS011;51452;47.698;19.050;2023-02-19T16:57:46;1.53;;;0.43;;
64936;SDS011;51452;47.698;19.050;2023-02-19T17:00:16;1.13;;;0.53;;
64936;SDS011;51452;47.698;19.050;2023-02-19T17:02:44;0.65;;;0.43;;
64936;SDS011;51452;47.698;19.050;2023-02-19T17:05:11;0.50;;;0.40;;
64936;SDS011;51452;47.698;19.050;2023-02-19T17:07:37;0.97;;;0.50;;
64936;SDS011;51452;47.698;19.050;2023-02-19T17:10:04;2.97;;;0.50;;
64936;SDS011;51452;47.698;19.050;2023-02-19T17:12:30;0.98;;;0.47;;
64936;SDS011;51452;47.698;19.050;2023-02-19T17:14:56;0.70;;;0.40;;
64936;SDS011;51452;47.698;19.050;2023-02-19T17:17:22;0.30;;;0.30;;
64936;SDS011;51452;47.698;19.050;2023-02-19T17:19:47;1.57;;;0.40;;
64936;SDS011;51452;47.698;19.050;2023-02-19T17:22:13;1.17;;;0.80;;
64936;SDS011;51452;47.698;19.050;2023-02-19T17:24:43;0.40;;;0.40;;